sensor_id;sensor_type;location;lat;lon;timestamp;pressure;altitude;pressure_sealevel;temperature;humidity
51526;BME280;37611;51.794;21.590;2024-03-23T00:56:04;99222.34;;;8.51;100.00
51526;BME280;37611;51.794;21.590;2024-03-23T01:00:06;99217.73;;;8.46;100.00
51526;BME280;37611;51.794;21.590;2024-03-23T01:04:11;99217.55;;;8.41;100.00
51526;BME280;37611;51.794;21.590;2024-03-23T01:08:13;99213.38;;;8.38;100.00
51526;BME280;37611;51.794;21.590;2024-03-23T01:12:15;99205.48;;;8.34;100.00
51526;BME280;37611;51.794;21.590;2024-03-23T01:16:16;99197.69;;;8.30;100.00
51526;BME280;37611;51.794;21.590;2024-03-23T01:20:18;99188.96;;;8.25;100.00
51526;BME280;37611;51.794;21.590;2024-03-23T01:24:20;99182.86;;;8.22;100.00
51526;BME280;37611;51.794;21.590;2024-03-23T01:28:22;99176.52;;;8.21;100.00
51526;BME280;37611;51.794;21.590;2024-03-23T01:32:23;99171.27;;;8.18;100.00
51526;BME280;37611;51.794;21.590;2024-03-23T01:36:25;99165.66;;;8.15;100.00
51526;BME280;37611;51.794;21.590;2024-03-23T01:40:27;99160.43;;;8.15;100.00
51526;BME280;37611;51.794;21.590;2024-03-23T01:44:33;99155.75;;;8.11;100.00
51526;BME280;37611;51.794;21.590;2024-03-23T01:48:34;99155.99;;;8.08;100.00
51526;BME280;37611;51.794;21.590;2024-03-23T01:52:36;99156.07;;;8.08;100.00
51526;BME280;37611;51.794;21.590;2024-03-23T01:56:38;99143.86;;;8.06;100.00
51526;BME280;37611;51.794;21.590;2024-03-23T02:00:40;99144.58;;;8.02;100.00
51526;BME280;37611;51.794;21.590;2024-03-23T02:04:42;99143.30;;;8.00;100.00
51526;BME280;37611;51.794;21.590;2024-03-23T02:08:44;99138.39;;;7.98;100.00
51526;BME280;37611;51.794;21.590;2024-03-23T02:12:45;99138.15;;;7.95;100.00
51526;BME280;37611;51.794;21.590;2024-03-23T02:16:48;99142.20;;;7.95;100.00
51526;BME280;37611;51.794;21.590;2024-03-23T02:20:50;99140.99;;;7.93;100.00
51526;BME280;37611;51.794;21.590;2024-03-23T02:24:51;99139.23;;;7.94;100.00
51526;BME280;37611;51.794;21.590;2024-03-23T02:28:53;99136.56;;;7.96;100.00
51526;BME280;37611;51.794;21.590;2024-03-23T02:32:55;99130.75;;;7.95;100.00
51526;BME280;37611;51.794;21.590;2024-03-23T02:36:57;99127.04;;;7.95;100.00
51526;BME280;37611;51.794;21.590;2024-03-23T02:41:03;99123.60;;;7.95;100.00
51526;BME280;37611;51.794;21.590;2024-03-23T02:45:05;99121.27;;;7.97;100.00
51526;BME280;37611;51.794;21.590;2024-03-23T02:49:07;99116.00;;;7.96;100.00
51526;BME280;37611;51.794;21.590;2024-03-23T02:53:09;99116.02;;;7.94;100.00
51526;BME280;37611;51.794;21.590;2024-03-23T02:57:11;99109.05;;;7.94;100.00
51526;BME280;37611;51.794;21.590;2024-03-23T03:01:13;99102.98;;;7.90;100.00
51526;BME280;37611;51.794;21.590;2024-03-23T03:05:15;99102.85;;;7.88;100.00
51526;BME280;37611;51.794;21.590;2024-03-23T03:09:16;99095.83;;;7.88;100.00
51526;BME280;37611;51.794;21.590;2024-03-23T03:13:18;99094.73;;;7.87;100.00
51526;BME280;37611;51.794;21.590;2024-03-23T03:17:20;99088.95;;;7.88;100.00
51526;BME280;37611;51.794;21.590;2024-03-23T03:21:22;99090.65;;;7.86;100.00
51526;BME280;37611;51.794;21.590;2024-03-23T03:25:24;99090.59;;;7.87;100.00
51526;BME280;37611;51.794;21.590;2024-03-23T03:29:25;99084.77;;;7.87;100.00
51526;BME280;37611;51.794;21.590;2024-03-23T03:33:27;99079.24;;;7.85;100.00
51526;BME280;37611;51.794;21.590;2024-03-23T03:37:29;99077.55;;;7.85;100.00
51526;BME280;37611;51.794;21.590;2024-03-23T03:41:31;99072.63;;;7.87;100.00
51526;BME280;37611;51.794;21.590;2024-03-23T03:45:33;99069.84;;;7.89;100.00
51526;BME280;37611;51.794;21.590;2024-03-23T03:49:35;99066.98;;;7.87;100.00
51526;BME280;37611;51.794;21.590;2024-03-23T03:53:37;99063.69;;;7.87;100.00
51526;BME280;37611;51.794;21.590;2024-03-23T03:57:38;99061.34;;;7.86;100.00
51526;BME280;37611;51.794;21.590;2024-03-23T04:01:40;99067.29;;;7.88;100.00
51526;BME280;37611;51.794;21.590;2024-03-23T04:05:42;99068.69;;;7.88;100.00
51526;BME280;37611;51.794;21.590;2024-03-23T04:09:44;99068.27;;;7.89;100.00
51526;BME280;37611;51.794;21.590;2024-03-23T04:13:45;99068.60;;;7.91;100.00
51526;BME280;37611;51.794;21.590;2024-03-23T04:17:47;99066.91;;;7.92;100.00
51526;BME280;37611;51.794;21.590;2024-03-23T04:21:49;99061.80;;;7.90;100.00
51526;BME280;37611;51.794;21.590;2024-03-23T04:25:50;99064.55;;;7.91;100.00
51526;BME280;37611;51.794;21.590;2024-03-23T04:29:54;99061.46;;;7.92;100.00
51526;BME280;37611;51.794;21.590;2024-03-23T04:33:56;99053.09;;;7.92;100.00
51526;BME280;37611;51.794;21.590;2024-03-23T04:37:58;99049.73;;;7.91;100.00
51526;BME280;37611;51.794;21.590;2024-03-23T04:42:03;99050.23;;;7.90;100.00
51526;BME280;37611;51.794;21.590;2024-03-23T04:46:05;99049.11;;;7.87;100.00
51526;BME280;37611;51.794;21.590;2024-03-23T04:50:07;99039.47;;;7.87;100.00
51526;BME280;37611;51.794;21.590;2024-03-23T04:54:09;99040.61;;;7.88;100.00
51526;BME280;37611;51.794;21.590;2024-03-23T04:58:11;99039.02;;;7.88;100.00
51526;BME280;37611;51.794;21.590;2024-03-23T05:02:13;99037.19;;;7.87;100.00
51526;BME280;37611;51.794;21.590;2024-03-23T05:06:15;99035.95;;;7.86;100.00
51526;BME280;37611;51.794;21.590;2024-03-23T05:10:16;99031.49;;;7.83;100.00
51526;BME280;37611;51.794;21.590;2024-03-23T05:14:18;99027.04;;;7.82;100.00
51526;BME280;37611;51.794;21.590;2024-03-23T05:18:21;99018.17;;;7.82;100.00
51526;BME280;37611;51.794;21.590;2024-03-23T05:22:23;99012.67;;;7.83;100.00
51526;BME280;37611;51.794;21.590;2024-03-23T05:26:24;99012.42;;;7.81;100.00
51526;BME280;37611;51.794;21.590;2024-03-23T05:30:26;99006.55;;;7.82;100.00
51526;BME280;37611;51.794;21.590;2024-03-23T05:34:28;99008.03;;;7.84;100.00
51526;BME280;37611;51.794;21.590;2024-03-23T05:38:30;99017.02;;;7.85;100.00
51526;BME280;37611;51.794;21.590;2024-03-23T05:42:32;99011.56;;;7.85;100.00
51526;BME280;37611;51.794;21.590;2024-03-23T05:46:34;99005.71;;;7.86;100.00
51526;BME280;37611;51.794;21.590;2024-03-23T05:50:36;99003.30;;;7.90;100.00
51526;BME280;37611;51.794;21.590;2024-03-23T05:54:37;98999.23;;;7.94;100.00
51526;BME280;37611;51.794;21.590;2024-03-23T05:58:39;99002.70;;;7.95;100.00
51526;BME280;37611;51.794;21.590;2024-03-23T06:02:42;98995.84;;;7.95;100.00
51526;BME280;37611;51.794;21.590;2024-03-23T06:06:47;98998.22;;;7.94;100.00
51526;BME280;37611;51.794;21.590;2024-03-23T06:10:48;98993.54;;;7.92;100.00
51526;BME280;37611;51.794;21.590;2024-03-23T06:14:51;98983.44;;;7.90;100.00
51526;BME280;37611;51.794;21.590;2024-03-23T06:18:54;98982.73;;;7.93;100.00
51526;BME280;37611;51.794;21.590;2024-03-23T06:23:01;98984.36;;;7.94;100.00
51526;BME280;37611;51.794;21.590;2024-03-23T06:27:03;98979.85;;;7.96;100.00
51526;BME280;37611;51.794;21.590;2024-03-23T06:31:09;98975.34;;;7.95;100.00
51526;BME280;37611;51.794;21.590;2024-03-23T06:35:11;98973.85;;;7.96;100.00
51526;BME280;37611;51.794;21.590;2024-03-23T06:39:13;98976.69;;;8.01;100.00
51526;BME280;37611;51.794;21.590;2024-03-23T06:43:16;98968.59;;;8.05;100.00
51526;BME280;37611;51.794;21.590;2024-03-23T06:47:18;98971.20;;;8.05;100.00
51526;BME280;37611;51.794;21.590;2024-03-23T06:51:20;98963.95;;;8.07;100.00
51526;BME280;37611;51.794;21.590;2024-03-23T06:55:22;98963.20;;;8.11;100.00
51526;BME280;37611;51.794;21.590;2024-03-23T06:59:25;98959.26;;;8.16;100.00
51526;BME280;37611;51.794;21.590;2024-03-23T07:03:27;98959.45;;;8.20;100.00
51526;BME280;37611;51.794;21.590;2024-03-23T07:07:29;98956.13;;;8.27;100.00
51526;BME280;37611;51.794;21.590;2024-03-23T07:11:31;98952.30;;;8.33;100.00
51526;BME280;37611;51.794;21.590;2024-03-23T07:15:33;98955.17;;;8.33;100.00
51526;BME280;37611;51.794;21.590;2024-03-23T07:19:35;98959.42;;;8.32;100.00
51526;BME280;37611;51.794;21.590;2024-03-23T07:23:37;98959.48;;;8.33;100.00
51526;BME280;37611;51.794;21.590;2024-03-23T07:27:39;98957.08;;;8.33;100.00
51526;BME280;37611;51.794;21.590;2024-03-23T07:31:41;98959.59;;;8.32;100.00
51526;BME280;37611;51.794;21.590;2024-03-23T07:35:43;98955.83;;;8.35;100.00
51526;BME280;37611;51.794;21.590;2024-03-23T07:39:45;98939.61;;;8.38;100.00
51526;BME280;37611;51.794;21.590;2024-03-23T07:43:47;98934.58;;;8.40;100.00
51526;BME280;37611;51.794;21.590;2024-03-23T07:47:49;98932.06;;;8.41;100.00
51526;BME280;37611;51.794;21.590;2024-03-23T07:51:51;98921.45;;;8.42;100.00
51526;BME280;37611;51.794;21.590;2024-03-23T07:56:01;98915.77;;;8.44;100.00
51526;BME280;37611;51.794;21.590;2024-03-23T08:00:05;98918.05;;;8.48;100.00
51526;BME280;37611;51.794;21.590;2024-03-23T08:04:07;98924.16;;;8.47;100.00
51526;BME280;37611;51.794;21.590;2024-03-23T08:08:09;98917.85;;;8.48;100.00
51526;BME280;37611;51.794;21.590;2024-03-23T08:12:12;98913.50;;;8.49;100.00
51526;BME280;37611;51.794;21.590;2024-03-23T08:16:14;98908.81;;;8.49;100.00
51526;BME280;37611;51.794;21.590;2024-03-23T08:20:15;98907.84;;;8.48;100.00
51526;BME280;37611;51.794;21.590;2024-03-23T08:24:17;98902.84;;;8.46;100.00
51526;BME280;37611;51.794;21.590;2024-03-23T08:28:21;98894.56;;;8.47;100.00
51526;BME280;37611;51.794;21.590;2024-03-23T08:32:22;98891.05;;;8.47;100.00
51526;BME280;37611;51.794;21.590;2024-03-23T08:36:24;98890.27;;;8.48;100.00
51526;BME280;37611;51.794;21.590;2024-03-23T08:40:26;98885.23;;;8.49;100.00
51526;BME280;37611;51.794;21.590;2024-03-23T08:44:27;98883.33;;;8.49;100.00
51526;BME280;37611;51.794;21.590;2024-03-23T08:48:29;98875.55;;;8.53;100.00
51526;BME280;37611;51.794;21.590;2024-03-23T08:52:31;98870.23;;;8.58;100.00
51526;BME280;37611;51.794;21.590;2024-03-23T08:56:32;98867.02;;;8.61;100.00
51526;BME280;37611;51.794;21.590;2024-03-23T09:00:34;98855.14;;;8.61;100.00
51526;BME280;37611;51.794;21.590;2024-03-23T09:04:36;98842.09;;;8.63;100.00
51526;BME280;37611;51.794;21.590;2024-03-23T09:08:38;98829.77;;;8.66;100.00
51526;BME280;37611;51.794;21.590;2024-03-23T09:12:40;98821.88;;;8.72;100.00
51526;BME280;37611;51.794;21.590;2024-03-23T09:16:42;98816.20;;;8.80;100.00
51526;BME280;37611;51.794;21.590;2024-03-23T09:20:43;98824.99;;;8.88;100.00
51526;BME280;37611;51.794;21.590;2024-03-23T09:24:45;98806.75;;;8.95;100.00
51526;BME280;37611;51.794;21.590;2024-03-23T09:28:48;98795.75;;;9.09;100.00
51526;BME280;37611;51.794;21.590;2024-03-23T09:32:50;98787.66;;;9.25;100.00
51526;BME280;37611;51.794;21.590;2024-03-23T09:36:52;98772.77;;;9.39;100.00
51526;BME280;37611;51.794;21.590;2024-03-23T09:40:54;98769.44;;;9.66;100.00
51526;BME280;37611;51.794;21.590;2024-03-23T09:44:57;98775.54;;;9.97;100.00
51526;BME280;37611;51.794;21.590;2024-03-23T09:48:59;98771.28;;;10.14;100.00
51526;BME280;37611;51.794;21.590;2024-03-23T09:53:01;98772.00;;;10.27;100.00
51526;BME280;37611;51.794;21.590;2024-03-23T09:57:03;98766.08;;;10.46;100.00
51526;BME280;37611;51.794;21.590;2024-03-23T10:01:05;98757.19;;;10.55;100.00
51526;BME280;37611;51.794;21.590;2024-03-23T10:05:25;98749.39;;;10.62;100.00
51526;BME280;37611;51.794;21.590;2024-03-23T10:09:29;98737.52;;;10.79;100.00
51526;BME280;37611;51.794;21.590;2024-03-23T10:13:30;98730.90;;;10.93;100.00
51526;BME280;37611;51.794;21.590;2024-03-23T10:17:33;98716.87;;;11.12;100.00
51526;BME280;37611;51.794;21.590;2024-03-23T10:21:35;98710.59;;;11.33;100.00
51526;BME280;37611;51.794;21.590;2024-03-23T10:25:37;98706.52;;;11.69;100.00
51526;BME280;37611;51.794;21.590;2024-03-23T10:29:39;98704.73;;;11.96;100.00
51526;BME280;37611;51.794;21.590;2024-03-23T10:33:47;98700.20;;;12.14;100.00
51526;BME280;37611;51.794;21.590;2024-03-23T10:37:49;98693.77;;;12.27;100.00
51526;BME280;37611;51.794;21.590;2024-03-23T10:41:53;98690.45;;;12.31;100.00
51526;BME280;37611;51.794;21.590;2024-03-23T10:45:57;98672.50;;;12.48;100.00
51526;BME280;37611;51.794;21.590;2024-03-23T10:49:59;98658.84;;;12.67;100.00
51526;BME280;37611;51.794;21.590;2024-03-23T10:54:04;98644.66;;;12.88;100.00
51526;BME280;37611;51.794;21.590;2024-03-23T10:58:07;98627.13;;;13.17;100.00
51526;BME280;37611;51.794;21.590;2024-03-23T11:02:19;98612.18;;;13.39;100.00
51526;BME280;37611;51.794;21.590;2024-03-23T11:06:41;98602.96;;;13.50;100.00
51526;BME280;37611;51.794;21.590;2024-03-23T11:10:42;98587.91;;;13.78;100.00
51526;BME280;37611;51.794;21.590;2024-03-23T11:14:45;98579.46;;;14.06;100.00
51526;BME280;37611;51.794;21.590;2024-03-23T11:18:47;98568.80;;;14.03;100.00
51526;BME280;37611;51.794;21.590;2024-03-23T11:22:49;98552.09;;;14.15;100.00
51526;BME280;37611;51.794;21.590;2024-03-23T11:26:54;98539.31;;;14.33;100.00
51526;BME280;37611;51.794;21.590;2024-03-23T11:30:56;98537.05;;;14.44;100.00
51526;BME280;37611;51.794;21.590;2024-03-23T11:34:58;98528.75;;;14.50;100.00
51526;BME280;37611;51.794;21.590;2024-03-23T11:39:14;98524.20;;;14.64;100.00
51526;BME280;37611;51.794;21.590;2024-03-23T11:43:19;98526.23;;;14.66;100.00
51526;BME280;37611;51.794;21.590;2024-03-23T11:47:21;98524.94;;;14.67;100.00
51526;BME280;37611;51.794;21.590;2024-03-23T11:51:24;98518.75;;;14.69;100.00
51526;BME280;37611;51.794;21.590;2024-03-23T11:55:26;98515.27;;;14.77;100.00
51526;BME280;37611;51.794;21.590;2024-03-23T11:59:40;98506.63;;;14.70;100.00
51526;BME280;37611;51.794;21.590;2024-03-23T12:03:44;98497.30;;;14.72;100.00
51526;BME280;37611;51.794;21.590;2024-03-23T12:07:46;98493.68;;;14.95;100.00
51526;BME280;37611;51.794;21.590;2024-03-23T12:11:47;98482.45;;;15.21;100.00
51526;BME280;37611;51.794;21.590;2024-03-23T12:15:50;98472.79;;;15.28;99.91
51526;BME280;37611;51.794;21.590;2024-03-23T12:19:52;98465.96;;;15.38;100.00
51526;BME280;37611;51.794;21.590;2024-03-23T12:23:54;98462.74;;;15.64;100.00
51526;BME280;37611;51.794;21.590;2024-03-23T12:27:59;98460.14;;;15.78;98.12
51526;BME280;37611;51.794;21.590;2024-03-23T12:32:01;98453.42;;;15.77;95.71
51526;BME280;37611;51.794;21.590;2024-03-23T12:36:04;98448.18;;;15.77;97.32
51526;BME280;37611;51.794;21.590;2024-03-23T12:40:07;98441.31;;;15.79;96.30
51526;BME280;37611;51.794;21.590;2024-03-23T12:44:09;98436.26;;;15.76;96.81
51526;BME280;37611;51.794;21.590;2024-03-23T12:48:13;98423.80;;;15.76;96.22
51526;BME280;37611;51.794;21.590;2024-03-23T12:52:17;98415.52;;;15.73;97.01
51526;BME280;37611;51.794;21.590;2024-03-23T12:56:18;98406.81;;;15.70;97.04
51526;BME280;37611;51.794;21.590;2024-03-23T13:00:20;98404.42;;;15.75;97.38
51526;BME280;37611;51.794;21.590;2024-03-23T13:04:22;98393.79;;;15.86;96.27
51526;BME280;37611;51.794;21.590;2024-03-23T13:08:23;98382.05;;;15.93;96.15
51526;BME280;37611;51.794;21.590;2024-03-23T13:12:25;98371.58;;;16.04;96.07
51526;BME280;37611;51.794;21.590;2024-03-23T13:16:27;98367.20;;;16.11;96.53
51526;BME280;37611;51.794;21.590;2024-03-23T13:20:28;98352.85;;;16.06;96.50
51526;BME280;37611;51.794;21.590;2024-03-23T13:24:31;98350.51;;;16.09;96.49
51526;BME280;37611;51.794;21.590;2024-03-23T13:28:33;98344.83;;;16.05;95.47
51526;BME280;37611;51.794;21.590;2024-03-23T13:32:34;98333.36;;;15.90;95.62
51526;BME280;37611;51.794;21.590;2024-03-23T13:36:37;98327.35;;;15.76;95.19
51526;BME280;37611;51.794;21.590;2024-03-23T13:40:39;98318.90;;;15.59;95.21
51526;BME280;37611;51.794;21.590;2024-03-23T13:44:41;98307.66;;;15.48;96.64
51526;BME280;37611;51.794;21.590;2024-03-23T13:48:42;98299.30;;;15.42;97.20
51526;BME280;37611;51.794;21.590;2024-03-23T13:52:44;98283.92;;;15.39;97.87
51526;BME280;37611;51.794;21.590;2024-03-23T13:56:48;98264.22;;;15.42;97.63
51526;BME280;37611;51.794;21.590;2024-03-23T14:00:50;98258.85;;;15.52;97.38
51526;BME280;37611;51.794;21.590;2024-03-23T14:04:52;98250.80;;;15.68;97.27
51526;BME280;37611;51.794;21.590;2024-03-23T14:08:54;98240.80;;;15.77;96.93
51526;BME280;37611;51.794;21.590;2024-03-23T14:12:56;98234.98;;;15.79;96.91
51526;BME280;37611;51.794;21.590;2024-03-23T14:16:57;98233.95;;;15.76;95.64
51526;BME280;37611;51.794;21.590;2024-03-23T14:21:00;98227.64;;;15.72;95.82
51526;BME280;37611;51.794;21.590;2024-03-23T14:25:03;98225.73;;;15.69;95.38
51526;BME280;37611;51.794;21.590;2024-03-23T14:29:05;98218.83;;;15.64;95.76
51526;BME280;37611;51.794;21.590;2024-03-23T14:33:07;98208.52;;;15.56;95.88
51526;BME280;37611;51.794;21.590;2024-03-23T14:37:08;98197.55;;;15.50;96.75
51526;BME280;37611;51.794;21.590;2024-03-23T14:41:10;98192.23;;;15.40;96.91
51526;BME280;37611;51.794;21.590;2024-03-23T14:45:12;98183.66;;;15.31;96.91
51526;BME280;37611;51.794;21.590;2024-03-23T14:49:15;98177.02;;;15.25;97.63
51526;BME280;37611;51.794;21.590;2024-03-23T14:53:19;98174.05;;;15.16;98.16
51526;BME280;37611;51.794;21.590;2024-03-23T14:57:21;98170.02;;;15.02;98.60
51526;BME280;37611;51.794;21.590;2024-03-23T15:01:22;98157.09;;;14.88;99.41
51526;BME280;37611;51.794;21.590;2024-03-23T15:05:24;98150.70;;;14.79;99.88
51526;BME280;37611;51.794;21.590;2024-03-23T15:09:26;98142.71;;;14.72;99.99
51526;BME280;37611;51.794;21.590;2024-03-23T15:13:27;98134.02;;;14.71;100.00
51526;BME280;37611;51.794;21.590;2024-03-23T15:17:29;98126.35;;;14.73;100.00
51526;BME280;37611;51.794;21.590;2024-03-23T15:21:35;98123.96;;;14.75;100.00
51526;BME280;37611;51.794;21.590;2024-03-23T15:25:37;98115.23;;;14.77;100.00
51526;BME280;37611;51.794;21.590;2024-03-23T15:29:39;98101.63;;;14.73;100.00
51526;BME280;37611;51.794;21.590;2024-03-23T15:33:41;98092.90;;;14.67;100.00
51526;BME280;37611;51.794;21.590;2024-03-23T15:37:42;98079.95;;;14.59;100.00
51526;BME280;37611;51.794;21.590;2024-03-23T15:41:45;98075.80;;;14.48;100.00
51526;BME280;37611;51.794;21.590;2024-03-23T15:46:00;98076.42;;;14.42;100.00
51526;BME280;37611;51.794;21.590;2024-03-23T15:50:03;98087.13;;;14.37;100.00
51526;BME280;37611;51.794;21.590;2024-03-23T15:54:09;98102.74;;;14.33;100.00
51526;BME280;37611;51.794;21.590;2024-03-23T15:58:11;98125.48;;;14.28;100.00
51526;BME280;37611;51.794;21.590;2024-03-23T16:02:13;98164.56;;;14.17;100.00
51526;BME280;37611;51.794;21.590;2024-03-23T16:06:16;98300.81;;;13.79;100.00
51526;BME280;37611;51.794;21.590;2024-03-23T16:10:18;98354.52;;;12.47;100.00
51526;BME280;37611;51.794;21.590;2024-03-23T16:14:20;98338.91;;;11.45;100.00
51526;BME280;37611;51.794;21.590;2024-03-23T16:18:22;98317.70;;;10.91;100.00
51526;BME280;37611;51.794;21.590;2024-03-23T16:22:24;98308.23;;;10.56;100.00
51526;BME280;37611;51.794;21.590;2024-03-23T16:26:25;98301.30;;;10.38;100.00
51526;BME280;37611;51.794;21.590;2024-03-23T16:30:27;98303.70;;;10.30;100.00
51526;BME280;37611;51.794;21.590;2024-03-23T16:34:29;98300.77;;;10.25;100.00
51526;BME280;37611;51.794;21.590;2024-03-23T16:38:31;98298.06;;;10.23;100.00
51526;BME280;37611;51.794;21.590;2024-03-23T16:42:36;98296.73;;;10.19;100.00
51526;BME280;37611;51.794;21.590;2024-03-23T16:46:37;98293.62;;;10.17;100.00
51526;BME280;37611;51.794;21.590;2024-03-23T16:50:39;98284.23;;;10.13;100.00
51526;BME280;37611;51.794;21.590;2024-03-23T16:54:41;98244.29;;;10.14;100.00
51526;BME280;37611;51.794;21.590;2024-03-23T16:58:43;98192.88;;;10.10;100.00
51526;BME280;37611;51.794;21.590;2024-03-23T17:02:47;98187.02;;;10.03;100.00
51526;BME280;37611;51.794;21.590;2024-03-23T17:06:49;98222.83;;;9.98;100.00
51526;BME280;37611;51.794;21.590;2024-03-23T17:10:57;98225.23;;;9.97;100.00
51526;BME280;37611;51.794;21.590;2024-03-23T17:15:04;98216.41;;;9.99;100.00
51526;BME280;37611;51.794;21.590;2024-03-23T17:19:08;98197.91;;;9.97;100.00
51526;BME280;37611;51.794;21.590;2024-03-23T17:23:10;98203.05;;;9.93;100.00
51526;BME280;37611;51.794;21.590;2024-03-23T17:27:12;98235.38;;;9.87;100.00
51526;BME280;37611;51.794;21.590;2024-03-23T17:31:16;98239.03;;;9.85;100.00
51526;BME280;37611;51.794;21.590;2024-03-23T17:35:18;98240.14;;;9.82;100.00
51526;BME280;37611;51.794;21.590;2024-03-23T17:39:23;98243.80;;;9.81;100.00
51526;BME280;37611;51.794;21.590;2024-03-23T17:43:24;98252.75;;;9.79;100.00
51526;BME280;37611;51.794;21.590;2024-03-23T17:47:26;98264.71;;;9.77;100.00
51526;BME280;37611;51.794;21.590;2024-03-23T17:51:28;98278.62;;;9.75;100.00
51526;BME280;37611;51.794;21.590;2024-03-23T17:55:31;98283.89;;;9.75;100.00
51526;BME280;37611;51.794;21.590;2024-03-23T17:59:33;98288.29;;;9.69;100.00
51526;BME280;37611;51.794;21.590;2024-03-23T18:03:35;98291.80;;;9.66;100.00
51526;BME280;37611;51.794;21.590;2024-03-23T18:07:37;98297.14;;;9.67;100.00
51526;BME280;37611;51.794;21.590;2024-03-23T18:11:38;98308.35;;;9.68;100.00
51526;BME280;37611;51.794;21.590;2024-03-23T18:15:42;98307.77;;;9.71;100.00
51526;BME280;37611;51.794;21.590;2024-03-23T18:19:44;98312.02;;;9.75;100.00
51526;BME280;37611;51.794;21.590;2024-03-23T18:23:46;98322.63;;;9.75;100.00
51526;BME280;37611;51.794;21.590;2024-03-23T18:27:48;98334.52;;;9.78;100.00
51526;BME280;37611;51.794;21.590;2024-03-23T18:31:50;98345.84;;;9.82;100.00
51526;BME280;37611;51.794;21.590;2024-03-23T18:35:53;98354.09;;;9.81;100.00
51526;BME280;37611;51.794;21.590;2024-03-23T18:39:57;98367.48;;;9.75;100.00
51526;BME280;37611;51.794;21.590;2024-03-23T18:43:59;98365.95;;;9.59;100.00
51526;BME280;37611;51.794;21.590;2024-03-23T18:48:01;98377.95;;;9.40;100.00
51526;BME280;37611;51.794;21.590;2024-03-23T18:52:04;98375.82;;;9.23;100.00
51526;BME280;37611;51.794;21.590;2024-03-23T18:56:06;98377.08;;;9.05;100.00
51526;BME280;37611;51.794;21.590;2024-03-23T19:00:08;98390.13;;;8.91;100.00
51526;BME280;37611;51.794;21.590;2024-03-23T19:04:10;98382.19;;;8.77;100.00
51526;BME280;37611;51.794;21.590;2024-03-23T19:08:12;98384.95;;;8.70;100.00
51526;BME280;37611;51.794;21.590;2024-03-23T19:12:13;98384.73;;;8.58;100.00
51526;BME280;37611;51.794;21.590;2024-03-23T19:16:18;98385.86;;;8.45;100.00
51526;BME280;37611;51.794;21.590;2024-03-23T19:20:20;98385.16;;;8.39;100.00
51526;BME280;37611;51.794;21.590;2024-03-23T19:24:22;98391.37;;;8.30;100.00
51526;BME280;37611;51.794;21.590;2024-03-23T19:28:24;98404.64;;;8.20;100.00
51526;BME280;37611;51.794;21.590;2024-03-23T19:32:27;98414.71;;;8.14;100.00
51526;BME280;37611;51.794;21.590;2024-03-23T19:36:30;98420.31;;;8.05;100.00
51526;BME280;37611;51.794;21.590;2024-03-23T19:40:33;98437.57;;;7.94;100.00
51526;BME280;37611;51.794;21.590;2024-03-23T19:44:34;98448.79;;;7.83;100.00
51526;BME280;37611;51.794;21.590;2024-03-23T19:48:36;98458.73;;;7.64;100.00
51526;BME280;37611;51.794;21.590;2024-03-23T19:52:38;98480.67;;;7.48;100.00
51526;BME280;37611;51.794;21.590;2024-03-23T19:56:40;98505.13;;;7.29;100.00
51526;BME280;37611;51.794;21.590;2024-03-23T20:00:42;98524.73;;;7.02;100.00
51526;BME280;37611;51.794;21.590;2024-03-23T20:04:44;98541.40;;;6.71;100.00
51526;BME280;37611;51.794;21.590;2024-03-23T20:08:46;98562.33;;;6.50;100.00
51526;BME280;37611;51.794;21.590;2024-03-23T20:12:51;98549.48;;;6.38;100.00
51526;BME280;37611;51.794;21.590;2024-03-23T20:16:53;98553.70;;;6.24;100.00
51526;BME280;37611;51.794;21.590;2024-03-23T20:21:02;98566.54;;;6.16;100.00
51526;BME280;37611;51.794;21.590;2024-03-23T20:25:06;98569.00;;;5.95;100.00
51526;BME280;37611;51.794;21.590;2024-03-23T20:29:10;98575.19;;;5.84;100.00
51526;BME280;37611;51.794;21.590;2024-03-23T20:33:12;98588.20;;;5.78;100.00
51526;BME280;37611;51.794;21.590;2024-03-23T20:37:13;98598.45;;;5.67;100.00
51526;BME280;37611;51.794;21.590;2024-03-23T20:41:16;98616.34;;;5.60;100.00
51526;BME280;37611;51.794;21.590;2024-03-23T20:45:20;98628.91;;;5.51;100.00
51526;BME280;37611;51.794;21.590;2024-03-23T20:49:22;98635.57;;;5.38;100.00
51526;BME280;37611;51.794;21.590;2024-03-23T20:53:23;98649.30;;;5.29;100.00
51526;BME280;37611;51.794;21.590;2024-03-23T20:57:25;98655.46;;;5.23;100.00
51526;BME280;37611;51.794;21.590;2024-03-23T21:01:27;98665.31;;;5.11;100.00
51526;BME280;37611;51.794;21.590;2024-03-23T21:05:33;98661.41;;;5.05;100.00
51526;BME280;37611;51.794;21.590;2024-03-23T21:09:35;98655.56;;;4.99;100.00
51526;BME280;37611;51.794;21.590;2024-03-23T21:13:37;98656.35;;;4.96;100.00
51526;BME280;37611;51.794;21.590;2024-03-23T21:17:38;98656.95;;;4.90;100.00
51526;BME280;37611;51.794;21.590;2024-03-23T21:21:40;98668.85;;;4.89;100.00
51526;BME280;37611;51.794;21.590;2024-03-23T21:25:44;98672.48;;;4.85;100.00
51526;BME280;37611;51.794;21.590;2024-03-23T21:29:50;98670.45;;;4.81;100.00
51526;BME280;37611;51.794;21.590;2024-03-23T21:33:52;98674.70;;;4.79;100.00
51526;BME280;37611;51.794;21.590;2024-03-23T21:37:54;98677.04;;;4.73;100.00
51526;BME280;37611;51.794;21.590;2024-03-23T21:41:56;98675.33;;;4.68;100.00
51526;BME280;37611;51.794;21.590;2024-03-23T21:46:03;98678.76;;;4.60;100.00
51526;BME280;37611;51.794;21.590;2024-03-23T21:50:06;98679.23;;;4.55;100.00
51526;BME280;37611;51.794;21.590;2024-03-23T21:54:07;98680.39;;;4.50;100.00
51526;BME280;37611;51.794;21.590;2024-03-23T21:58:09;98689.73;;;4.41;100.00